岡山グライダークラブ活動状況掲示板あなたは無料カウンター人目の訪問者です

岡山グライダークラブ
岡山市浦安南町639-1 岡南飛行場
 使用機:シャイベ式 SF25C型 ファルケ   JA2330
      ヴァレンティン式17E型 タイフーン  JA2342
 練習日:毎日曜日  クラブルーム:電話 086-265-1810
この掲示板は岡山グライダークラブの活動状況をお知らせする掲示板です。
!!!この掲示板は投稿規制をしています。!!!
クラブ関連各種情報は 岡山グライダークラブクラブルーム      を       .
  ブリーフイング情報は  岡山グライダークラブブリーフィングルーム  をご覧下さい。 .
※写真はクリックすると拡大して見ることが出来ます。
岡南飛行場へのアクセス等は 岡南飛行場管理事務所 をご覧ください。
クラブの ホームページ ができました。

 
09月13日
by OGC at 2020/9/13(日) 22:48:59 No.20200913224512  削除コメント
1024 x 768 x 104,318バイト
No.1

09月13日
本日の参加者
  会員      15名
  その他      0名


@本日の様子






METAR
RJBK 130000Z 28008KT 30KM FEW020CU SCT/// 26/22 Q1011 A2987
RJOB 130000Z 29006KT 260V340 9999 FEW010 SCT020 BKN/// 25/20 Q1012
RJOT 130000Z 27008KT 9999 FEW004 SCT030 BKN100 24/21 Q1012
RJOA 130000Z 29010KT 9999 FEW020 SCT/// 23/18 Q1013
TAF
RJOB 122306Z 1300/1406 25005KT 9999 FEW020 SCT040
     BECMG 1306/1308 36005KT
     BECMG 1400/1403 19005KT
RJOT 122311Z 1300/1406 26008KT 9999 FEW020 SCT040
RJOA 122309Z 1300/1406 31008KT 9999 FEW020 SCT030 BKN045
     BECMG 1321/1400 17005KT

本日は、積雲がポコポコと出来ていましたので、みんな期待を膨らませ、サーマルを
探して飛び回ったり、加古川や小豆島、与島へNAVに出ていていました。。。
また、先週、自家用操縦技能証明の実地試験があり、見事、合格いたしました。


解散    17:20

1番機  11:10離陸 撤収機  17:00着陸 

SF25C JA2330 ファルケ     07Flt.3h15hmin  
17E   JA2342 タイフーン    05Flt.3h15min  
合計                    12Flt.6h30min

    << 戻る || ホームページ || 最新の掲示板へ